Time;durP1;ratioP1;P1;durP2;ratioP2;P2;SDS_P1;SDS_P2;PMS_P1;PMS_P2;Temp;Humidity;BMP_temperature;BMP_pressure;BME280_temperature;BME280_humidity;BME280_pressure;Samples;Min_cycle;Max_cycle;Signal;HPM_P1;HPM_P2
2023/08/04 00:01:17;;;;;;;4.65;1.77;;;;;;;17.20;77.16;100431.53;5157128;28;20107;-87
2023/08/04 00:04:07;;;;;;;0.30;0.30;;;;;;;17.13;77.25;100435.50;5159478;28;20505;-88
2023/08/04 00:06:58;;;;;;;0.35;0.35;;;;;;;17.18;77.19;100432.56;5169113;28;20104;-89
2023/08/04 00:09:49;;;;;;;0.73;0.73;;;;;;;17.18;77.14;100433.41;5154477;28;20046;-87
2023/08/04 00:12:40;;;;;;;0.75;0.75;;;;;;;17.03;78.00;100434.31;5171881;28;20038;-87
2023/08/04 00:15:30;;;;;;;0.30;0.30;;;;;;;17.04;77.73;100431.56;5171218;28;20572;-87
2023/08/04 00:18:21;;;;;;;4.38;1.70;;;;;;;17.12;77.24;100433.78;5158470;28;20085;-88
2023/08/04 00:21:12;;;;;;;1.63;1.52;;;;;;;17.18;76.94;100435.22;5155225;28;20038;-88
2023/08/04 00:24:03;;;;;;;0.38;0.38;;;;;;;17.12;76.76;100429.31;5176627;28;20041;-87
2023/08/04 00:26:54;;;;;;;1.38;1.27;;;;;;;17.12;76.62;100425.84;5164067;28;20018;-88
2023/08/04 00:29:45;;;;;;;0.43;0.40;;;;;;;17.18;76.57;100441.38;5176095;28;20442;-88
2023/08/04 00:32:36;;;;;;;0.52;0.52;;;;;;;17.12;77.34;100441.72;5163346;28;20027;-88
2023/08/04 00:35:26;;;;;;;0.43;0.43;;;;;;;17.10;76.99;100435.66;5160031;28;20041;-87
2023/08/04 00:38:17;;;;;;;0.40;0.40;;;;;;;17.06;77.51;100442.09;5175648;28;20041;-88
2023/08/04 00:41:08;;;;;;;0.98;0.68;;;;;;;17.07;77.30;100438.47;5162974;28;20533;-88
2023/08/04 00:43:59;;;;;;;3.20;1.23;;;;;;;16.99;77.71;100444.25;5159283;28;20050;-88
2023/08/04 00:46:50;;;;;;;0.40;0.40;;;;;;;17.02;77.52;100448.50;5176670;28;20030;-88
2023/08/04 00:49:41;;;;;;;0.30;0.30;;;;;;;17.02;77.91;100444.09;5176222;28;20490;-87
2023/08/04 00:52:32;;;;;;;0.40;0.40;;;;;;;17.07;77.23;100446.44;5160103;28;20026;-87
2023/08/04 00:55:23;;;;;;;0.88;0.88;;;;;;;17.06;76.97;100450.06;5167672;28;20556;-87
2023/08/04 00:58:14;;;;;;;1.05;1.02;;;;;;;17.09;76.87;100455.16;5179633;28;20041;-87
2023/08/04 01:01:04;;;;;;;0.52;0.52;;;;;;;17.06;77.28;100450.06;5166341;28;20483;-89
2023/08/04 01:03:56;;;;;;;0.40;0.40;;;;;;;16.89;78.54;100443.03;5173527;28;20397;-89
2023/08/04 01:07:10;;;;;;;0.57;0.57;;;;;;;16.90;78.31;100456.19;5160051;28;20038;-88
2023/08/04 01:10:19;;;;;;;0.30;0.30;;;;;;;16.95;77.40;100459.47;5175064;28;20088;-87
2023/08/04 01:13:14;;;;;;;0.30;0.30;;;;;;;16.94;77.75;100457.75;5169405;28;20027;-87
2023/08/04 01:16:07;;;;;;;0.30;0.30;;;;;;;16.94;77.35;100464.88;5163911;28;20034;-87
2023/08/04 01:18:58;;;;;;;0.45;0.45;;;;;;;16.90;77.32;100460.66;5161951;28;20022;-88
2023/08/04 01:21:49;;;;;;;0.30;0.30;;;;;;;16.99;77.15;100465.44;5158787;28;20072;-88
2023/08/04 01:24:40;;;;;;;0.63;0.63;;;;;;;17.01;77.22;100462.69;5169302;28;20069;-88
2023/08/04 01:27:47;;;;;;;0.93;0.85;;;;;;;16.93;77.46;100457.88;5164113;28;20026;-87
2023/08/04 01:30:40;;;;;;;0.75;0.70;;;;;;;16.97;77.08;100467.31;5159911;28;20503;-88
2023/08/04 01:33:31;;;;;;;0.52;0.52;;;;;;;16.97;77.42;100462.91;5171520;28;20118;-88
2023/08/04 01:36:21;;;;;;;0.30;0.30;;;;;;;16.98;77.23;100471.69;5158681;28;21393;-86
2023/08/04 01:39:12;;;;;;;0.47;0.47;;;;;;;16.97;77.02;100462.91;5175139;28;20035;-88
2023/08/04 01:42:04;;;;;;;0.38;0.38;;;;;;;16.90;77.15;100466.78;5160312;28;20026;-89
2023/08/04 01:44:54;;;;;;;0.55;0.55;;;;;;;16.81;78.37;100468.19;5171845;28;20037;-87
2023/08/04 01:47:48;;;;;;;0.45;0.45;;;;;;;16.79;78.75;100475.34;5165909;28;20036;-87
2023/08/04 01:50:39;;;;;;;0.90;0.90;;;;;;;16.81;78.66;100480.59;5156708;28;20046;-88
2023/08/04 01:53:29;;;;;;;0.43;0.43;;;;;;;16.84;77.90;100480.41;5170250;28;20436;-87
2023/08/04 01:56:20;;;;;;;0.70;0.70;;;;;;;16.82;77.69;100482.28;5176112;28;20085;-89
2023/08/04 01:59:11;;;;;;;0.40;0.40;;;;;;;16.89;77.49;100482.78;5177132;28;20030;-88
2023/08/04 02:02:02;;;;;;;2.20;2.00;;;;;;;16.86;77.57;100485.63;5176397;28;20042;-88
2023/08/04 02:04:53;;;;;;;0.60;0.60;;;;;;;16.86;77.10;100483.81;5160979;28;20071;-88
2023/08/04 02:07:44;;;;;;;1.15;1.15;;;;;;;16.87;77.55;100482.88;5172181;28;20034;-87
2023/08/04 02:10:35;;;;;;;1.20;1.15;;;;;;;16.85;77.56;100479.47;5179977;28;20065;-87
2023/08/04 02:13:25;;;;;;;2.13;1.27;;;;;;;16.91;77.22;100484.41;5181660;28;20079;-88
2023/08/04 02:16:17;;;;;;;1.13;1.10;;;;;;;16.83;77.64;100484.00;5171711;28;20085;-88
2023/08/04 02:19:09;;;;;;;0.65;0.65;;;;;;;16.81;77.95;100481.44;5159253;28;20402;-87
2023/08/04 02:22:00;;;;;;;0.57;0.57;;;;;;;16.83;77.48;100476.03;5173559;28;20521;-89
2023/08/04 02:24:50;;;;;;;0.30;0.30;;;;;;;16.86;77.22;100483.81;5159487;28;20095;-89
2023/08/04 02:27:41;;;;;;;0.63;0.43;;;;;;;16.84;76.95;100475.97;5175549;28;20029;-88
2023/08/04 02:30:32;;;;;;;0.40;0.40;;;;;;;16.82;76.84;100480.50;5168999;28;20034;-87
2023/08/04 02:33:23;;;;;;;0.30;0.30;;;;;;;16.74;77.88;100487.16;5169412;28;20027;-88
2023/08/04 02:36:14;;;;;;;0.40;0.40;;;;;;;16.80;78.21;100482.38;5174151;28;20037;-88
2023/08/04 02:39:05;;;;;;;0.20;0.20;;;;;;;16.79;77.65;100491.25;5174376;28;20121;-88
2023/08/04 02:41:57;;;;;;;0.40;0.40;;;;;;;16.80;77.40;100494.78;5162609;28;20037;-88
2023/08/04 02:44:53;;;;;;;1.02;0.93;;;;;;;16.77;77.64;100490.50;5180224;28;20104;-87
2023/08/04 02:47:44;;;;;;;21.92;2.50;;;;;;;16.75;77.72;100497.69;5167279;28;20029;-87
2023/08/04 02:50:35;;;;;;;0.80;0.80;;;;;;;16.78;77.83;100499.31;5177295;28;20117;-88
2023/08/04 02:53:26;;;;;;;0.65;0.65;;;;;;;16.74;78.62;100505.69;5171863;28;20021;-87
2023/08/04 02:56:18;;;;;;;0.75;0.75;;;;;;;16.79;77.71;100501.84;5173516;28;20439;-87
2023/08/04 02:59:09;;;;;;;1.05;1.02;;;;;;;16.66;78.54;100507.00;5159667;28;20533;-86
2023/08/04 03:02:00;;;;;;;4.05;1.30;;;;;;;16.51;80.34;100503.41;5160885;28;20042;-87
2023/08/04 03:04:51;;;;;;;0.40;0.40;;;;;;;16.62;79.04;100502.81;5160725;28;20045;-87
2023/08/04 03:07:41;;;;;;;0.55;0.55;;;;;;;16.61;79.41;100505.56;5172456;28;20410;-89
2023/08/04 03:10:32;;;;;;;0.30;0.30;;;;;;;16.51;79.63;100513.16;5167709;28;20045;-87
2023/08/04 03:13:23;;;;;;;0.47;0.47;;;;;;;16.61;78.68;100514.34;5171932;28;21254;-88
2023/08/04 03:16:14;;;;;;;2.92;2.05;;;;;;;16.50;79.62;100512.31;5165072;28;20042;-88
2023/08/04 03:19:05;;;;;;;0.57;0.57;;;;;;;16.49;79.50;100512.38;5160977;28;20056;-88
2023/08/04 03:21:55;;;;;;;1.40;1.02;;;;;;;16.53;79.38;100506.81;5169320;28;20129;-88
2023/08/04 03:24:46;;;;;;;1.42;1.35;;;;;;;16.34;80.92;100511.44;5156613;28;20095;-87
2023/08/04 03:27:37;;;;;;;1.55;1.17;;;;;;;16.53;79.60;100522.72;5157143;28;20062;-87
2023/08/04 03:30:28;;;;;;;0.70;0.70;;;;;;;16.32;81.20;100521.25;5159342;28;20050;-88
2023/08/04 03:33:19;;;;;;;1.13;1.05;;;;;;;16.42;80.01;100527.75;5161117;28;20115;-87
2023/08/04 03:36:10;;;;;;;0.90;0.90;;;;;;;16.52;79.00;100533.41;5170677;28;20065;-88
2023/08/04 03:39:01;;;;;;;0.45;0.45;;;;;;;16.56;78.48;100531.44;5157613;28;20399;-87
2023/08/04 03:41:52;;;;;;;2.03;0.93;;;;;;;16.50;79.04;100537.91;5176667;28;20045;-88
2023/08/04 03:44:42;;;;;;;0.45;0.45;;;;;;;16.57;78.18;100533.16;5170251;28;20124;-87
2023/08/04 03:47:34;;;;;;;0.68;0.68;;;;;;;16.59;78.11;100536.56;5164906;28;20347;-87
2023/08/04 03:50:25;;;;;;;0.52;0.52;;;;;;;16.48;79.48;100539.81;5159359;28;20065;-88
2023/08/04 03:53:16;;;;;;;0.40;0.40;;;;;;;16.52;78.95;100536.03;5171808;28;20113;-87
2023/08/04 03:56:07;;;;;;;0.65;0.65;;;;;;;16.52;78.82;100539.56;5153475;28;20042;-88
2023/08/04 03:58:58;;;;;;;0.50;0.50;;;;;;;16.56;78.27;100540.25;5165745;28;20444;-87
2023/08/04 04:01:49;;;;;;;0.95;0.75;;;;;;;16.49;78.51;100546.78;5155622;28;20124;-88
2023/08/04 04:04:39;;;;;;;0.60;0.60;;;;;;;16.55;78.31;100540.31;5169210;28;20186;-87
2023/08/04 04:07:30;;;;;;;0.40;0.40;;;;;;;16.51;78.72;100543.16;5168943;28;20121;-87
2023/08/04 04:10:21;;;;;;;1.73;0.52;;;;;;;16.56;77.89;100552.63;5158062;28;20038;-89
2023/08/04 04:13:12;;;;;;;4.32;0.88;;;;;;;16.57;78.12;100544.56;5167033;28;20241;-88
2023/08/04 04:16:03;;;;;;;6.55;2.15;;;;;;;16.53;78.15;100548.34;5171203;28;20044;-87
2023/08/04 04:18:53;;;;;;;0.40;0.40;;;;;;;16.53;78.60;100548.34;5175189;28;20532;-86
2023/08/04 04:21:44;;;;;;;0.40;0.40;;;;;;;16.54;78.35;100558.00;5168346;28;20099;-87
2023/08/04 04:24:35;;;;;;;1.58;1.30;;;;;;;16.57;78.07;100560.47;5171790;28;20030;-88
2023/08/04 04:27:26;;;;;;;0.60;0.60;;;;;;;16.54;78.05;100565.97;5175993;28;20030;-88
2023/08/04 04:30:17;;;;;;;1.48;0.77;;;;;;;16.49;78.20;100562.69;5163036;28;20104;-87
2023/08/04 04:33:07;;;;;;;0.50;0.50;;;;;;;16.48;78.13;100568.94;5158129;28;20242;-87
2023/08/04 04:35:58;;;;;;;2.38;2.20;;;;;;;16.57;78.75;100571.06;5173292;28;20042;-88
2023/08/04 04:38:49;;;;;;;4.30;1.38;;;;;;;16.44;80.07;100567.38;5159943;28;20037;-88
2023/08/04 04:41:40;;;;;;;3.08;1.08;;;;;;;16.51;78.53;100568.75;5163504;28;20046;-87
2023/08/04 04:44:31;;;;;;;0.25;0.25;;;;;;;16.49;78.69;100573.28;5173669;28;20037;-88
2023/08/04 04:47:21;;;;;;;1.52;1.42;;;;;;;16.51;78.39;100576.69;5165304;28;20037;-88
2023/08/04 04:50:12;;;;;;;0.30;0.30;;;;;;;16.53;78.30;100580.97;5177777;28;20030;-87
2023/08/04 04:53:03;;;;;;;0.75;0.75;;;;;;;16.55;78.53;100577.38;5164506;28;20030;-87
2023/08/04 04:55:56;;;;;;;1.17;1.05;;;;;;;16.33;81.11;100579.41;5178231;28;20033;-88
2023/08/04 04:58:46;;;;;;;0.50;0.50;;;;;;;16.33;81.26;100584.69;5162911;28;20609;-87
2023/08/04 05:01:37;;;;;;;1.00;1.00;;;;;;;16.12;82.98;100581.41;5174514;28;20033;-87
2023/08/04 05:04:28;;;;;;;1.42;0.77;;;;;;;16.08;83.41;100585.16;5174926;28;20061;-87
2023/08/04 05:07:19;;;;;;;3.70;1.33;;;;;;;16.16;82.83;100587.38;5184847;28;20509;-87
2023/08/04 05:10:09;;;;;;;0.40;0.40;;;;;;;16.17;82.67;100594.38;5176535;28;20042;-87
2023/08/04 05:13:00;;;;;;;1.23;1.13;;;;;;;16.08;83.58;100590.44;5172808;28;20133;-87
2023/08/04 05:15:51;;;;;;;0.60;0.60;;;;;;;16.11;83.03;100584.13;5171543;28;20346;-86
2023/08/04 05:18:42;;;;;;;0.50;0.50;;;;;;;16.18;82.05;100591.69;5173553;28;20037;-87
2023/08/04 05:21:33;;;;;;;1.95;0.93;;;;;;;16.29;80.92;100593.75;5162473;28;20030;-88
2023/08/04 05:24:23;;;;;;;2.13;1.88;;;;;;;16.36;80.99;100589.84;5173193;28;20041;-87
2023/08/04 05:27:14;;;;;;;1.13;1.10;;;;;;;16.20;82.44;100594.25;5166137;28;20037;-88
2023/08/04 05:30:06;;;;;;;0.50;0.50;;;;;;;16.31;80.98;100601.59;5156189;28;20442;-88
2023/08/04 05:32:56;;;;;;;2.72;1.05;;;;;;;16.41;80.28;100608.13;5170897;28;20030;-88
2023/08/04 05:35:47;;;;;;;1.73;1.00;;;;;;;16.44;80.81;100597.38;5171159;28;20643;-88
2023/08/04 05:38:38;;;;;;;1.10;0.50;;;;;;;16.45;80.43;100600.88;5171927;28;20090;-88
2023/08/04 05:41:29;;;;;;;2.08;1.20;;;;;;;16.32;82.35;100604.16;5159887;28;20052;-88
2023/08/04 05:44:22;;;;;;;0.60;0.60;;;;;;;16.27;82.89;100600.06;5159873;28;20049;-87
2023/08/04 05:47:13;;;;;;;0.30;0.30;;;;;;;16.41;81.89;100602.84;5166989;28;20030;-87
2023/08/04 05:50:04;;;;;;;1.55;0.85;;;;;;;16.40;81.91;100616.16;5167363;28;20178;-87
2023/08/04 05:52:56;;;;;;;0.47;0.47;;;;;;;16.44;81.51;100618.56;5159300;28;20060;-88
2023/08/04 05:55:47;;;;;;;1.08;0.93;;;;;;;16.48;80.90;100628.03;5160789;28;20121;-88
2023/08/04 05:58:37;;;;;;;0.75;0.75;;;;;;;16.51;81.23;100637.63;5167685;28;20041;-87
2023/08/04 06:01:28;;;;;;;0.43;0.43;;;;;;;16.55;81.21;100633.00;5176695;28;20299;-87
2023/08/04 06:04:19;;;;;;;2.25;0.98;;;;;;;16.50;82.57;100631.47;5170092;28;20103;-88
2023/08/04 06:07:10;;;;;;;0.52;0.52;;;;;;;16.58;81.11;100635.50;5171656;28;20493;-87
2023/08/04 06:10:00;;;;;;;0.98;0.98;;;;;;;16.58;82.14;100644.28;5163684;28;20049;-88
2023/08/04 06:12:51;;;;;;;0.93;0.93;;;;;;;16.61;81.48;100641.50;5159690;28;20030;-87
2023/08/04 06:15:42;;;;;;;1.25;0.75;;;;;;;16.58;81.70;100646.94;5166482;28;20061;-87
2023/08/04 06:18:33;;;;;;;0.68;0.68;;;;;;;16.52;82.29;100653.44;5176661;28;20421;-86
2023/08/04 06:21:24;;;;;;;0.85;0.77;;;;;;;16.48;83.13;100653.69;5160089;28;20092;-88
2023/08/04 06:24:27;;;;;;;17.35;2.20;;;;;;;16.67;81.31;100662.34;5173656;28;20121;-87
2023/08/04 06:27:18;;;;;;;;;;;;;;;16.63;81.86;100660.81;5163123;28;20038;-87
2023/08/04 06:30:09;;;;;;;4.68;1.40;;;;;;;16.71;81.01;100673.63;5164968;28;20289;-87
2023/08/04 06:33:00;;;;;;;0.80;0.80;;;;;;;16.78;80.33;100668.88;5169081;28;20496;-89
2023/08/04 06:35:51;;;;;;;0.95;0.88;;;;;;;16.78;80.94;100674.16;5155472;28;20037;-89
2023/08/04 06:38:41;;;;;;;0.68;0.57;;;;;;;16.76;81.23;100676.91;5176954;28;20789;-89
2023/08/04 06:41:32;;;;;;;6.07;1.13;;;;;;;16.81;81.01;100674.84;5175735;28;20022;-91
2023/08/04 06:44:23;;;;;;;0.70;0.70;;;;;;;16.79;81.73;100683.81;5165722;28;20046;-89
2023/08/04 06:47:14;;;;;;;0.82;0.82;;;;;;;16.79;81.80;100679.38;5183625;28;20399;-89
2023/08/04 06:50:06;;;;;;;2.03;1.48;;;;;;;16.86;81.28;100676.41;5166921;28;20049;-90
2023/08/04 06:52:56;;;;;;;0.77;0.77;;;;;;;16.83;82.00;100682.72;5168411;28;20137;-89
2023/08/04 06:55:47;;;;;;;0.57;0.57;;;;;;;16.82;82.28;100686.28;5161495;28;20583;-89
2023/08/04 06:58:38;;;;;;;0.95;0.95;;;;;;;16.79;82.62;100683.81;5168967;28;20026;-91
2023/08/04 07:01:29;;;;;;;0.75;0.75;;;;;;;16.62;83.09;100680.28;5169526;28;20045;-90
2023/08/04 07:04:19;;;;;;;3.72;1.75;;;;;;;16.73;83.52;100692.13;5163603;28;20041;-89
2023/08/04 07:07:10;;;;;;;0.98;0.68;;;;;;;16.79;83.07;100692.63;5172962;28;20102;-89
2023/08/04 07:10:01;;;;;;;0.98;0.98;;;;;;;16.77;83.49;100689.22;5167859;28;20489;-88
2023/08/04 07:12:52;;;;;;;0.43;0.43;;;;;;;16.94;81.71;100685.69;5166563;28;20036;-88
2023/08/04 07:15:54;;;;;;;0.80;0.80;;;;;;;16.98;82.41;100689.00;5161359;28;20034;-89
2023/08/04 07:18:45;;;;;;;1.30;1.08;;;;;;;17.00;82.40;100689.78;5182255;28;20056;-89
2023/08/04 07:21:36;;;;;;;0.30;0.30;;;;;;;16.95;82.53;100698.00;5167818;28;20148;-88
2023/08/04 07:24:27;;;;;;;0.70;0.70;;;;;;;16.78;83.77;100698.00;5164710;28;20061;-89
2023/08/04 07:27:18;;;;;;;0.93;0.93;;;;;;;16.88;83.02;100703.66;5169551;28;20022;-88
2023/08/04 07:30:10;;;;;;;3.30;0.98;;;;;;;17.07;82.47;100698.25;5161153;28;20560;-89
2023/08/04 07:33:04;;;;;;;1.02;0.95;;;;;;;16.97;82.86;100709.38;5159524;28;20030;-90
2023/08/04 07:35:58;;;;;;;;;;;;;;;17.01;83.12;100711.84;5173173;28;20034;-87
2023/08/04 07:38:49;;;;;;;;;;;;;;;17.15;82.30;100709.28;5165015;28;19921;-88
2023/08/04 07:41:39;;;;;;;0.68;0.68;;;;;;;17.15;82.67;100706.63;5161711;28;19944;-89
2023/08/04 07:44:32;;;;;;;0.40;0.40;;;;;;;17.06;82.98;100715.97;5163001;28;20065;-87
2023/08/04 07:47:23;;;;;;;1.00;0.90;;;;;;;17.18;82.46;100709.13;5174239;28;20490;-90
2023/08/04 07:50:14;;;;;;;0.70;0.70;;;;;;;17.25;82.37;100710.50;5172218;28;20093;-89
2023/08/04 07:53:05;;;;;;;1.60;0.82;;;;;;;17.45;81.52;100711.19;5171985;28;20034;-87
2023/08/04 07:55:57;;;;;;;0.50;0.50;;;;;;;17.35;82.13;100715.28;5180991;28;20129;-88
2023/08/04 07:58:48;;;;;;;0.80;0.80;;;;;;;17.34;82.57;100716.22;5179954;28;20033;-88
2023/08/04 08:01:39;;;;;;;0.45;0.45;;;;;;;17.46;82.08;100712.91;5165481;28;20025;-88
2023/08/04 08:04:29;;;;;;;0.40;0.40;;;;;;;17.50;81.58;100719.72;5178235;28;20046;-88
2023/08/04 08:07:20;;;;;;;0.77;0.77;;;;;;;17.49;81.09;100723.31;5169812;28;20038;-88
2023/08/04 08:10:11;;;;;;;0.80;0.73;;;;;;;17.69;80.93;100713.38;5184991;28;20029;-88
2023/08/04 08:13:02;;;;;;;0.75;0.75;;;;;;;17.67;81.36;100720.56;5164407;28;20032;-88
2023/08/04 08:15:53;;;;;;;0.57;0.57;;;;;;;17.55;81.69;100725.66;5179596;28;20140;-88
2023/08/04 08:18:44;;;;;;;0.85;0.70;;;;;;;17.74;81.41;100725.47;5171700;28;20096;-88
2023/08/04 08:21:35;;;;;;;0.73;0.52;;;;;;;17.91;80.53;100727.13;5173193;28;20030;-88
2023/08/04 08:24:26;;;;;;;0.25;0.25;;;;;;;17.93;80.91;100730.56;5156779;28;20045;-88
2023/08/04 08:27:17;;;;;;;0.55;0.50;;;;;;;18.00;80.23;100733.75;5164758;28;20089;-88
2023/08/04 08:30:08;;;;;;;0.57;0.57;;;;;;;17.96;79.87;100737.50;5161728;28;20045;-89
2023/08/04 08:32:58;;;;;;;0.52;0.52;;;;;;;18.04;79.67;100740.56;5176242;28;20034;-88
2023/08/04 08:35:49;;;;;;;3.30;1.48;;;;;;;18.06;79.67;100748.44;5160994;28;20070;-88
2023/08/04 08:38:40;;;;;;;0.30;0.30;;;;;;;17.90;80.54;100744.00;5172163;28;20393;-88
2023/08/04 08:41:31;;;;;;;1.40;1.13;;;;;;;18.01;80.23;100750.53;5175435;28;20026;-88
2023/08/04 08:44:22;;;;;;;1.85;1.35;;;;;;;18.14;79.22;100748.84;5172019;28;20121;-88
2023/08/04 08:47:13;;;;;;;0.80;0.80;;;;;;;18.13;79.43;100755.13;5163727;28;20486;-88
2023/08/04 08:50:05;;;;;;;0.70;0.70;;;;;;;18.12;78.42;100752.53;5164387;28;20034;-88
2023/08/04 08:53:10;;;;;;;0.55;0.55;;;;;;;18.05;79.89;100762.69;5173437;28;20040;-88
2023/08/04 08:56:02;;;;;;;1.38;0.98;;;;;;;18.01;79.73;100761.13;5178460;28;20527;-88
2023/08/04 08:58:55;;;;;;;2.92;1.65;;;;;;;18.19;79.18;100754.75;5166330;28;20487;-89
2023/08/04 09:01:46;;;;;;;0.40;0.40;;;;;;;18.27;78.77;100761.44;5177931;28;21002;-89
2023/08/04 09:04:38;;;;;;;0.73;0.73;;;;;;;18.19;78.69;100760.06;5170529;28;20046;-89
2023/08/04 09:07:28;;;;;;;0.70;0.57;;;;;;;18.27;78.55;100758.78;5170077;28;20026;-89
2023/08/04 09:10:21;;;;;;;0.57;0.57;;;;;;;18.06;76.77;100765.25;5160374;28;20125;-88
2023/08/04 09:13:12;;;;;;;0.40;0.40;;;;;;;18.15;77.90;100766.50;5176358;28;20504;-89
2023/08/04 09:16:03;;;;;;;0.40;0.40;;;;;;;18.27;77.86;100756.09;5172599;28;20034;-89
2023/08/04 09:19:01;;;;;;;0.40;0.40;;;;;;;18.22;77.72;100759.03;5176649;28;20453;-89
2023/08/04 09:21:56;;;;;;;0.50;0.50;;;;;;;18.38;76.54;100759.84;5175318;28;20058;-89
2023/08/04 09:25:04;;;;;;;2.05;1.05;;;;;;;18.46;77.41;100762.06;5157385;28;20169;-88
2023/08/04 09:27:56;;;;;;;0.30;0.30;;;;;;;18.51;76.31;100761.78;5170923;28;20528;-88
2023/08/04 09:31:03;;;;;;;0.43;0.43;;;;;;;18.56;76.61;100762.34;5174254;28;20022;-89
2023/08/04 09:33:58;;;;;;;0.50;0.50;;;;;;;18.60;76.75;100765.66;5165599;28;20026;-89
2023/08/04 09:36:49;;;;;;;0.45;0.45;;;;;;;18.64;76.62;100769.84;5178379;28;20090;-88
2023/08/04 09:39:46;;;;;;;0.57;0.57;;;;;;;18.71;75.44;100768.53;5174019;28;20093;-89
2023/08/04 09:42:36;;;;;;;1.90;0.75;;;;;;;18.64;73.52;100770.72;5173195;28;20034;-88
2023/08/04 09:45:32;;;;;;;0.30;0.30;;;;;;;18.76;74.41;100769.13;5168911;28;20505;-88
2023/08/04 09:48:27;;;;;;;0.20;0.20;;;;;;;18.78;73.78;100764.56;5169855;28;20108;-89
2023/08/04 09:51:19;;;;;;;17.80;1.60;;;;;;;18.81;73.63;100772.34;5172327;28;20336;-89
2023/08/04 09:54:10;;;;;;;1.35;0.60;;;;;;;18.83;72.68;100770.44;5174552;28;20030;-89
2023/08/04 09:57:02;;;;;;;0.50;0.50;;;;;;;18.86;71.99;100770.28;5174889;28;20877;-89
2023/08/04 09:59:53;;;;;;;4.90;1.42;;;;;;;18.87;71.54;100771.97;5163314;28;20575;-89
2023/08/04 10:02:44;;;;;;;0.50;0.50;;;;;;;19.02;71.76;100769.34;5173941;28;20410;-89
2023/08/04 10:05:36;;;;;;;0.40;0.40;;;;;;;18.96;68.97;100767.09;5170859;28;20040;-89
2023/08/04 10:08:29;;;;;;;0.52;0.43;;;;;;;19.01;67.55;100775.63;5170263;28;20054;-88
2023/08/04 10:11:21;;;;;;;;;;;;;;;19.10;69.27;100764.41;5171497;28;20366;-88
2023/08/04 10:14:11;;;;;;;0.35;0.35;;;;;;;19.09;68.07;100773.34;5168490;28;19979;-89
2023/08/04 10:17:03;;;;;;;0.50;0.50;;;;;;;19.08;64.80;100771.63;5161577;28;20048;-88
2023/08/04 10:20:05;;;;;;;0.35;0.35;;;;;;;19.07;66.93;100769.06;5183590;28;20062;-88
2023/08/04 10:22:57;;;;;;;0.20;0.20;;;;;;;19.14;66.81;100775.72;5182730;28;20033;-88
2023/08/04 10:26:01;;;;;;;0.20;0.20;;;;;;;19.18;65.93;100766.56;5173667;28;20022;-89
2023/08/04 10:29:08;;;;;;;1.40;1.30;;;;;;;19.21;65.64;100769.06;5171977;28;20482;-88
2023/08/04 10:32:01;;;;;;;0.22;0.22;;;;;;;19.24;63.51;100768.88;5163976;28;20030;-89
2023/08/04 10:34:54;;;;;;;0.30;0.30;;;;;;;19.26;62.63;100766.09;5163500;28;20041;-89
2023/08/04 10:37:53;;;;;;;0.68;0.68;;;;;;;19.48;63.99;100761.13;5163911;28;20355;-89
2023/08/04 10:40:44;;;;;;;0.38;0.38;;;;;;;19.52;62.89;100761.78;5165420;28;20026;-88
2023/08/04 10:43:38;;;;;;;0.32;0.32;;;;;;;19.67;65.69;100759.94;5157537;28;20085;-89
2023/08/04 10:46:32;;;;;;;0.65;0.55;;;;;;;19.76;65.67;100764.66;5168742;28;20510;-88
2023/08/04 10:49:22;;;;;;;;;;;;;;;19.81;64.97;100767.88;5170877;28;20046;-88
2023/08/04 10:52:13;;;;;;;0.40;0.40;;;;;;;19.92;63.84;100763.69;5169843;28;20000;-88
2023/08/04 10:55:06;;;;;;;0.38;0.38;;;;;;;19.93;64.03;100762.75;5158099;28;20046;-87
2023/08/04 10:57:57;;;;;;;5.57;1.95;;;;;;;19.86;63.89;100764.94;5137657;28;20034;-86
2023/08/04 11:00:48;;;;;;;0.30;0.30;;;;;;;19.90;64.24;100768.25;5135845;28;20279;-86
2023/08/04 11:03:39;;;;;;;0.30;0.30;;;;;;;20.01;65.55;100771.06;5147299;28;20399;-88
2023/08/04 11:06:30;;;;;;;2.20;0.57;;;;;;;20.03;65.01;100771.84;5153396;28;20037;-88
2023/08/04 11:09:21;;;;;;;0.40;0.40;;;;;;;20.09;63.43;100776.75;5138227;28;20035;-89
2023/08/04 11:12:14;;;;;;;0.60;0.60;;;;;;;20.13;63.18;100785.38;5146156;28;20578;-88
2023/08/04 11:15:09;;;;;;;0.35;0.35;;;;;;;20.16;62.83;100782.53;5146133;28;20031;-88
2023/08/04 11:18:00;;;;;;;0.30;0.30;;;;;;;20.24;61.93;100785.53;5151526;28;20513;-88
2023/08/04 11:20:51;;;;;;;0.55;0.50;;;;;;;20.26;60.87;100782.75;5146438;28;20129;-88
2023/08/04 11:23:42;;;;;;;2.97;1.23;;;;;;;20.28;59.85;100780.84;5148154;28;20126;-88
2023/08/04 11:26:32;;;;;;;0.30;0.30;;;;;;;20.45;59.68;100775.22;5150825;28;20026;-89
2023/08/04 11:29:25;;;;;;;0.30;0.30;;;;;;;20.48;60.33;100782.19;5146974;28;20045;-88
2023/08/04 11:32:21;;;;;;;0.22;0.22;;;;;;;20.55;59.30;100787.91;5149509;28;20061;-88
2023/08/04 11:35:11;;;;;;;0.52;0.52;;;;;;;20.60;60.03;100780.47;5151904;28;20030;-88
2023/08/04 11:38:03;;;;;;;0.30;0.30;;;;;;;20.73;60.68;100780.53;5144312;28;20022;-88
2023/08/04 11:40:59;;;;;;;0.20;0.20;;;;;;;20.86;60.71;100773.38;5146774;28;20038;-89
2023/08/04 11:43:50;;;;;;;0.30;0.30;;;;;;;20.93;60.21;100771.13;5135299;28;20038;-89
2023/08/04 11:46:41;;;;;;;0.63;0.63;;;;;;;21.00;57.40;100777.75;5138198;28;20023;-89
2023/08/04 11:49:34;;;;;;;0.40;0.40;;;;;;;20.96;57.80;100770.91;5135143;28;20030;-89
2023/08/04 11:52:25;;;;;;;0.70;0.70;;;;;;;21.02;57.20;100786.50;5151504;28;20398;-89
2023/08/04 11:55:16;;;;;;;0.30;0.30;;;;;;;21.01;59.01;100784.78;5133241;28;20270;-89
2023/08/04 11:58:07;;;;;;;0.30;0.30;;;;;;;21.13;59.69;100779.53;5138705;28;20030;-89
2023/08/04 12:00:58;;;;;;;0.90;0.75;;;;;;;21.08;58.29;100785.19;5137775;28;20062;-88
2023/08/04 12:03:49;;;;;;;0.30;0.30;;;;;;;21.16;60.00;100787.31;5138245;28;20041;-88
2023/08/04 12:06:40;;;;;;;0.28;0.28;;;;;;;21.21;59.68;100783.38;5153072;28;20046;-90
2023/08/04 12:09:32;;;;;;;0.25;0.25;;;;;;;21.29;59.64;100782.81;5138070;28;20117;-88
2023/08/04 12:12:39;;;;;;;0.60;0.60;;;;;;;21.45;56.90;100787.91;5153005;28;20116;-88
2023/08/04 12:15:30;;;;;;;2.25;1.75;;;;;;;21.39;55.70;100793.69;5149480;28;20502;-89
2023/08/04 12:18:25;;;;;;;0.30;0.30;;;;;;;21.53;56.27;100787.34;5151615;28;20066;-89
2023/08/04 12:21:17;;;;;;;0.30;0.30;;;;;;;21.64;55.50;100798.13;5137643;28;20401;-86
2023/08/04 12:24:08;;;;;;;0.22;0.22;;;;;;;21.66;58.14;100796.22;5140701;28;20062;-89
2023/08/04 12:26:59;;;;;;;0.52;0.40;;;;;;;21.76;58.65;100798.22;5140172;28;20407;-89
2023/08/04 12:29:49;;;;;;;0.30;0.30;;;;;;;21.72;56.93;100794.03;5153474;28;20027;-89
2023/08/04 12:32:40;;;;;;;0.40;0.40;;;;;;;21.78;57.62;100797.13;5156374;28;20026;-89
2023/08/04 12:35:31;;;;;;;0.32;0.32;;;;;;;21.89;57.57;100795.50;5159723;28;20275;-89
2023/08/04 12:38:23;;;;;;;0.38;0.38;;;;;;;21.98;57.92;100803.66;5159505;28;20105;-89
2023/08/04 12:41:14;;;;;;;0.50;0.40;;;;;;;22.00;58.23;100803.56;5160446;28;20579;-89
2023/08/04 12:44:04;;;;;;;0.22;0.22;;;;;;;21.97;56.38;100806.47;5164381;28;20533;-88
2023/08/04 12:46:56;;;;;;;0.25;0.25;;;;;;;22.12;55.91;100799.09;5150629;28;20019;-88
2023/08/04 12:49:47;;;;;;;0.20;0.20;;;;;;;22.08;54.80;100798.50;5158225;28;20601;-89
2023/08/04 12:52:37;;;;;;;0.40;0.40;;;;;;;22.14;55.27;100795.38;5159130;28;20034;-89
2023/08/04 12:55:28;;;;;;;0.20;0.20;;;;;;;22.16;55.52;100792.59;5151792;28;20577;-88
2023/08/04 12:58:19;;;;;;;0.30;0.30;;;;;;;22.21;54.67;100798.41;5143463;28;20096;-89
2023/08/04 13:01:10;;;;;;;0.30;0.30;;;;;;;22.30;54.20;100796.91;5146801;28;20061;-89
2023/08/04 13:04:01;;;;;;;0.20;0.20;;;;;;;22.39;54.87;100808.69;5137848;28;20585;-90
2023/08/04 13:06:51;;;;;;;2.30;0.70;;;;;;;22.62;54.00;100810.50;5139524;28;20030;-89
2023/08/04 13:09:42;;;;;;;0.30;0.30;;;;;;;22.61;55.54;100802.59;5149854;28;20026;-89
2023/08/04 13:12:33;;;;;;;0.43;0.43;;;;;;;22.58;54.99;100805.50;5161089;28;20038;-90
2023/08/04 13:15:24;;;;;;;1.85;1.30;;;;;;;22.60;54.11;100801.72;5145091;28;20113;-90
2023/08/04 13:18:15;;;;;;;0.25;0.25;;;;;;;22.61;54.90;100802.59;5161368;28;20042;-89
2023/08/04 13:21:05;;;;;;;0.30;0.30;;;;;;;22.72;55.45;100799.97;5144645;28;20034;-91